No se requiere un especial cuidado respecto a la situación meteorológica.   -   No hay avisos

Informes METAR

 

LEZL - Sevilla, Spain
Distancia de la estación: ENE 8km
Actualización: 21/01/2019 06:30
Despejado
Despejado
 Viento de variable
Viento: variable 2 km/h
Temperatura: 4°C
Rocío: 2°C
Humedad: 87%
Barómetro: 1020 hPa
Resumen: Despejado
Visibilidad: mayor de 10 km
2019/01/21 05:30 LEZL 210530Z VRB01KT CAVOK 04/02 Q1020 NOSIG
LEMO - Morón, Spain
Distancia de la estación: SE 43km
Actualización: 21/01/2019 06:00
Despejado
Despejado
 Viento de SE
Viento: SE 6 km/h
Temperatura: 1°C
Rocío: 0°C
Humedad: 93%
Barómetro: 1020 hPa
Resumen: Despejado
Visibilidad: mayor de 10 km
2019/01/21 05:00 LEMO 210500Z 14003KT CAVOK 01/00 Q1020 NOSIG
LEJR - Jeréz, Spain
Distancia de la estación: S 71km
Actualización: 21/01/2019 06:30
Despejado
Despejado
 Viento de calm
Viento: Calma
Temperatura: 3°C
Rocío: 3°C
Humedad: 100%
Barómetro: 1020 hPa
Resumen: Despejado
Visibilidad: mayor de 10 km
2019/01/21 05:30 LEJR 210530Z 00000KT CAVOK 03/03 Q1020
 
LERT - Rota, Spain
Distancia de la estación: SSO 89km
Actualización: 21/01/2019 06:00
Despejado
Despejado
 Viento de NNO
Viento: NNO 9 km/h
Temperatura: 7°C
Sensación térmica: 6°C
Rocío: 5°C
Humedad: 87%
Barómetro: 1020 hPa
Resumen: Despejado
Visibilidad: mayor de 10 km
2019/01/21 05:00 LERT 210500Z 33005KT CAVOK 07/05 Q1020 NOSIG
LEMG - Málaga, Spain
Distancia de la estación: ESE 157km
Actualización: 21/01/2019 06:30
Despejado
Despejado
 Viento de O
Viento: O 26 km/h
Temperatura: 10°C
Sensación térmica: 7°C
Rocío: 3°C
Humedad: 62%
Barómetro: 1018 hPa
Resumen: Despejado
Visibilidad: mayor de 10 km
2019/01/21 05:30 LEMG 210530Z 28014KT CAVOK 10/03 Q1018 NOSIG
LEBA - Córdoba, Spain
Distancia de la estación: ENE 115km
Actualización: 21/01/2019 06:30
Despejado
Despejado
 Viento de OSO
Viento: OSO 4 km/h
Temperatura: 0°C
Rocío: 0°C
Humedad: 100%
Barómetro: 1020 hPa
Nubes: Despejado
Visibilidad: 10 km
2019/01/21 05:30 LEBA 210530Z AUTO 24002KT 9999 NCD 00/00 Q1020
 
LEGR - Granada, Spain
Distancia de la estación: E 198km
Actualización: 21/01/2019 06:30
Poco nuboso
Poco nuboso
 Viento de variable
Viento: variable 2 km/h
Temperatura: 0°C
Rocío: -1°C
Humedad: 93%
Barómetro: 1019 hPa
Nubes: Poco nuboso
Visibilidad: 10 km
Detalles de las nubes: Poco nuboso 2438 m
2019/01/21 05:30 LEGR 210530Z VRB01KT 9999 FEW080 M00/M01 Q1019
LEAM - Almería, Spain
Distancia de la estación: E 326km
Actualización: 21/01/2019 06:30
Poco nuboso
Poco nuboso
 Viento de NNO
Viento: NNO 19 km/h
Temperatura: 12°C
Rocío: 0°C
Humedad: 44%
Barómetro: 1017 hPa
Nubes: Poco nuboso
Visibilidad: 10 km
Detalles de las nubes: Poco nuboso 305 m
Poco nuboso 1219 m
2019/01/21 05:30 LEAM 210530Z 33010KT 9999 FEW010 FEW040TCU 12/00 Q1017
LEMD - Madrid/Barajas, Spain
Distancia de la estación: NNE 402km
Actualización: 21/01/2019 06:30
Despejado
Despejado
 Viento de NNO
Viento: NNO 15 km/h
Temperatura: 4°C
Sensación térmica: 1°C
Rocío: 0°C
Humedad: 75%
Barómetro: 1019 hPa
Resumen: Despejado
Visibilidad: mayor de 10 km
2019/01/21 05:30 LEMD 210530Z 33008KT 300V360 CAVOK 04/M00 Q1019 NOSIG
 
LEVD - Valladolid, Spain
Distancia de la estación: N 492km
Actualización: 20/01/2019 21:30
NOT Current
Poco nuboso
Poco nuboso
 Viento de N
Viento: N 13 km/h
Temperatura: 0°C
Sensación térmica: -4°C
Rocío: -1°C
Humedad: 93%
Barómetro: 1018 hPa
Nubes: Poco nuboso
Visibilidad: 10 km
Detalles de las nubes: Poco nuboso 1372 m
2019/01/20 20:30 LEVD 202030Z 36007KT 9999 FEW045 00/M01 Q1018
LEBL - Barcelona, Spain
Distancia de la estación: NE 816km
Actualización: 21/01/2019 06:30
Poco nuboso
Poco nuboso
 Viento de NNO
Viento: NNO 20 km/h
Temperatura: 4°C
Sensación térmica: -1°C
Rocío: 2°C
Humedad: 87%
Barómetro: 1015 hPa
Nubes: Poco nuboso
Visibilidad: 10 km
Detalles de las nubes: Poco nuboso 914 m
2019/01/21 05:30 LEBL 210530Z 33011KT 9999 FEW030 04/02 Q1015 NOSIG
LEVC - Valencia, Spain
Distancia de la estación: ENE 535km
Actualización: 21/01/2019 06:30
Despejado
Despejado
 Viento de O
Viento: O 9 km/h
Temperatura: 3°C
Sensación térmica: 0°C
Rocío: 0°C
Humedad: 81%
Barómetro: 1017 hPa
Resumen: Despejado
Visibilidad: mayor de 10 km
2019/01/21 05:30 LEVC 210530Z 28005KT CAVOK 03/00 Q1017 NOSIG